Time;durP1;ratioP1;P1;durP2;ratioP2;P2;SDS_P1;SDS_P2;PMS_P1;PMS_P2;Temp;Humidity;BMP_temperature;BMP_pressure;BME280_temperature;BME280_humidity;BME280_pressure;Samples;Min_cycle;Max_cycle;Signal;HPM_P1;HPM_P2
2023/09/17 00:02:10;;;;;;;4.57;4.17;;;23.40;99.90;;;;;;4992305;28;21076;-53
2023/09/17 00:04:37;;;;;;;5.33;4.83;;;23.40;99.90;;;;;;4996629;28;20549;-56
2023/09/17 00:07:03;;;;;;;4.37;3.97;;;23.40;99.90;;;;;;4993785;28;20477;-56
2023/09/17 00:09:30;;;;;;;4.90;4.50;;;23.30;99.90;;;;;;4996462;28;20470;-52
2023/09/17 00:11:57;;;;;;;4.50;4.20;;;23.40;99.90;;;;;;4995163;28;20463;-55
2023/09/17 00:14:24;;;;;;;4.90;4.40;;;23.40;99.90;;;;;;4996596;28;20486;-58
2023/09/17 00:16:52;;;;;;;5.00;4.60;;;23.40;99.90;;;;;;4993996;28;20999;-59
2023/09/17 00:19:19;;;;;;;4.60;4.20;;;23.30;99.90;;;;;;4997322;28;20469;-59
2023/09/17 00:21:55;;;;;;;5.00;4.60;;;23.30;99.90;;;;;;4997506;28;20460;-55
2023/09/17 00:24:22;;;;;;;5.30;4.80;;;23.30;99.90;;;;;;4995006;28;20980;-55
2023/09/17 00:26:49;;;;;;;5.17;4.77;;;23.40;99.90;;;;;;4998861;28;20457;-59
2023/09/17 00:29:16;;;;;;;4.40;4.10;;;23.30;99.90;;;;;;5002802;28;20490;-57
2023/09/17 00:31:43;;;;;;;4.80;4.40;;;23.30;99.90;;;;;;4997032;28;20467;-56
2023/09/17 00:34:11;;;;;;;4.67;4.30;;;23.30;99.90;;;;;;4999562;28;20979;-59
2023/09/17 00:36:38;;;;;;;5.07;4.73;;;23.30;99.90;;;;;;4988291;28;20481;-58
2023/09/17 00:39:05;;;;;;;5.17;4.77;;;23.30;99.90;;;;;;5000545;28;20808;-56
2023/09/17 00:41:31;;;;;;;5.23;4.60;;;23.30;99.90;;;;;;4998307;28;20447;-58
2023/09/17 00:43:58;;;;;;;4.93;4.53;;;23.30;99.90;;;;;;5000368;28;20461;-56
2023/09/17 00:46:25;;;;;;;5.53;5.03;;;23.30;99.90;;;;;;5000972;28;20993;-58
2023/09/17 00:48:52;;;;;;;5.13;4.73;;;23.30;99.90;;;;;;4999864;28;20850;-58
2023/09/17 00:51:21;;;;;;;5.37;4.87;;;23.30;99.90;;;;;;4998740;28;20459;-57
2023/09/17 00:53:48;;;;;;;4.70;4.40;;;23.30;99.90;;;;;;4997751;28;20463;-56
2023/09/17 00:56:15;;;;;;;4.37;4.00;;;23.30;99.90;;;;;;5001094;28;20482;-53
2023/09/17 00:58:43;;;;;;;4.40;4.10;;;23.30;99.90;;;;;;5001992;28;20486;-58
2023/09/17 01:01:12;;;;;;;4.47;4.17;;;23.30;99.90;;;;;;4993885;28;21104;-58
2023/09/17 01:03:39;;;;;;;4.37;4.07;;;23.30;99.90;;;;;;4999361;28;20542;-57
2023/09/17 01:06:09;;;;;;;5.20;4.80;;;23.30;99.90;;;;;;4997631;28;21133;-56
2023/09/17 01:08:39;;;;;;;4.37;4.00;;;23.30;99.90;;;;;;5001373;28;20471;-59
2023/09/17 01:11:07;;;;;;;4.00;3.80;;;23.30;99.90;;;;;;4999993;28;20472;-56
2023/09/17 01:13:34;;;;;;;4.30;4.00;;;23.30;99.90;;;;;;4998468;28;20474;-57
2023/09/17 01:16:03;;;;;;;4.10;3.80;;;23.30;99.90;;;;;;5000280;28;20471;-57
2023/09/17 01:18:30;;;;;;;4.93;4.53;;;23.30;99.90;;;;;;4995809;28;20471;-60
2023/09/17 01:21:00;;;;;;;4.37;3.97;;;23.30;99.90;;;;;;4998756;28;20460;-57
2023/09/17 01:23:33;;;;;;;5.23;4.80;;;23.30;99.90;;;;;;4999960;28;20463;-56
2023/09/17 01:26:09;;;;;;;5.70;5.20;;;23.30;99.90;;;;;;5002662;28;20463;-54
2023/09/17 01:28:37;;;;;;;4.60;4.30;;;23.30;99.90;;;;;;4997388;28;20594;-59
2023/09/17 01:31:05;;;;;;;4.80;4.40;;;23.30;99.90;;;;;;4999878;28;20478;-57
2023/09/17 01:33:33;;;;;;;4.50;4.10;;;23.30;99.90;;;;;;5001062;28;20467;-56
2023/09/17 01:36:07;;;;;;;4.20;3.90;;;23.30;99.90;;;;;;4999074;28;20470;-57
2023/09/17 01:38:41;;;;;;;4.63;4.23;;;23.30;99.90;;;;;;4999830;28;20546;-53
2023/09/17 01:41:09;;;;;;;4.77;4.47;;;23.30;99.90;;;;;;5002545;28;20466;-56
2023/09/17 01:43:40;;;;;;;4.27;3.97;;;23.30;99.90;;;;;;5001848;28;20875;-51
2023/09/17 01:46:07;;;;;;;4.47;4.17;;;23.30;99.90;;;;;;4995555;28;20526;-54
2023/09/17 01:48:35;;;;;;;4.10;3.80;;;23.30;99.90;;;;;;4999360;28;20467;-53
2023/09/17 01:51:03;;;;;;;4.57;4.17;;;23.30;99.90;;;;;;4998897;28;20990;-54
2023/09/17 01:53:30;;;;;;;4.13;3.80;;;23.30;99.90;;;;;;5001134;28;20467;-55
2023/09/17 01:55:57;;;;;;;3.80;3.50;;;23.30;99.90;;;;;;4996058;28;20465;-53
2023/09/17 01:58:24;;;;;;;3.80;3.47;;;23.30;99.90;;;;;;4999170;28;20994;-49
2023/09/17 02:00:52;;;;;;;4.63;4.23;;;23.30;99.90;;;;;;4998296;28;20459;-57
2023/09/17 02:03:19;;;;;;;4.57;4.27;;;23.30;99.90;;;;;;4999208;28;20589;-52
2023/09/17 02:05:46;;;;;;;4.27;3.97;;;23.30;99.90;;;;;;4998458;28;20451;-54
2023/09/17 02:08:12;;;;;;;4.40;4.10;;;23.30;99.90;;;;;;4999062;28;20464;-58
2023/09/17 02:10:40;;;;;;;4.53;4.13;;;23.30;99.90;;;;;;5002719;28;20463;-50
2023/09/17 02:13:07;;;;;;;4.33;4.03;;;23.30;99.90;;;;;;4999846;28;20984;-55
2023/09/17 02:15:33;;;;;;;4.00;3.70;;;23.30;99.90;;;;;;4996874;28;20456;-49
2023/09/17 02:18:03;;;;;;;5.00;4.60;;;23.30;99.90;;;;;;4999272;28;20482;-53
2023/09/17 02:20:30;;;;;;;3.87;3.53;;;23.30;99.90;;;;;;4998590;28;20948;-53
2023/09/17 02:22:56;;;;;;;4.47;4.17;;;23.30;99.90;;;;;;4998209;28;20839;-56
2023/09/17 02:25:23;;;;;;;4.17;3.77;;;23.30;99.90;;;;;;5000563;28;20867;-51
2023/09/17 02:27:50;;;;;;;3.60;3.30;;;23.30;99.90;;;;;;4995276;28;20479;-53
2023/09/17 02:30:17;;;;;;;4.57;4.00;;;23.30;99.90;;;;;;4995816;28;20999;-57
2023/09/17 02:32:43;;;;;;;4.10;3.80;;;23.20;99.90;;;;;;4999528;28;20476;-59
2023/09/17 02:35:12;;;;;;;3.80;3.50;;;23.30;99.90;;;;;;4998854;28;20469;-56
2023/09/17 02:37:38;;;;;;;4.40;4.10;;;23.30;99.90;;;;;;4996476;28;20487;-56
2023/09/17 02:40:09;;;;;;;4.60;4.30;;;23.30;99.90;;;;;;4999659;28;20455;-54
2023/09/17 02:42:36;;;;;;;4.37;4.07;;;23.30;99.90;;;;;;4995665;28;20464;-55
2023/09/17 02:45:03;;;;;;;5.10;4.70;;;23.30;99.90;;;;;;4996917;28;20459;-59
2023/09/17 02:47:30;;;;;;;4.13;3.83;;;23.20;99.90;;;;;;5000325;28;20469;-53
2023/09/17 02:49:57;;;;;;;4.53;3.80;;;23.20;99.90;;;;;;4997721;28;20478;-57
2023/09/17 02:52:26;;;;;;;4.33;4.03;;;23.30;99.90;;;;;;4995909;28;20459;-58
2023/09/17 02:54:53;;;;;;;4.63;4.23;;;23.20;99.90;;;;;;4999818;28;20471;-55
2023/09/17 02:57:20;;;;;;;3.40;3.10;;;23.30;99.90;;;;;;5000599;28;20506;-52
2023/09/17 02:59:47;;;;;;;4.53;4.03;;;23.30;99.90;;;;;;4998055;28;21187;-57
2023/09/17 03:02:13;;;;;;;4.00;3.70;;;23.30;99.90;;;;;;4993927;28;22320;-50
2023/09/17 03:04:40;;;;;;;4.00;3.70;;;23.20;99.90;;;;;;5000054;28;20831;-52
2023/09/17 03:07:07;;;;;;;3.87;3.57;;;23.30;99.90;;;;;;4996690;28;20468;-56
2023/09/17 03:09:35;;;;;;;4.40;4.10;;;23.20;99.90;;;;;;4998674;28;20468;-59
2023/09/17 03:12:02;;;;;;;4.37;4.07;;;23.30;99.90;;;;;;4996403;28;20464;-54
2023/09/17 03:14:29;;;;;;;4.00;3.60;;;23.30;99.90;;;;;;4993482;28;20456;-53
2023/09/17 03:16:56;;;;;;;5.07;4.57;;;23.30;99.90;;;;;;4996972;28;21003;-55
2023/09/17 03:19:23;;;;;;;5.17;4.77;;;23.20;99.90;;;;;;4998750;28;20543;-55
2023/09/17 03:21:49;;;;;;;3.80;3.50;;;23.20;99.90;;;;;;4996807;28;20459;-56
2023/09/17 03:24:16;;;;;;;4.70;4.30;;;23.20;99.90;;;;;;4999353;28;20447;-56
2023/09/17 03:26:44;;;;;;;3.83;3.60;;;23.20;99.90;;;;;;4998866;28;20472;-56
2023/09/17 03:29:12;;;;;;;4.10;3.80;;;23.20;99.90;;;;;;4999058;28;20471;-56
2023/09/17 03:31:41;;;;;;;3.60;3.30;;;23.20;99.90;;;;;;4991350;28;20455;-51
2023/09/17 03:34:07;;;;;;;4.80;4.40;;;23.30;99.90;;;;;;4999449;28;20467;-56
2023/09/17 03:36:35;;;;;;;3.80;3.50;;;23.20;99.90;;;;;;4997949;28;20972;-57
2023/09/17 03:39:05;;;;;;;3.40;3.20;;;23.20;99.90;;;;;;4996795;28;20611;-54
2023/09/17 03:41:32;;;;;;;3.67;3.37;;;23.20;99.90;;;;;;4998137;28;20464;-58
2023/09/17 03:44:00;;;;;;;3.87;3.57;;;23.30;99.90;;;;;;4997210;28;20500;-53
2023/09/17 03:46:27;;;;;;;4.03;3.73;;;23.20;99.90;;;;;;4997880;28;20455;-54
2023/09/17 03:48:53;;;;;;;4.30;4.00;;;23.20;99.90;;;;;;4999653;28;20475;-57
2023/09/17 03:51:20;;;;;;;4.70;4.20;;;23.20;99.90;;;;;;4995460;28;20470;-52
2023/09/17 03:53:47;;;;;;;3.90;3.60;;;23.20;99.90;;;;;;4995949;28;20494;-53
2023/09/17 03:56:14;;;;;;;4.40;4.00;;;23.20;99.90;;;;;;4997043;28;20463;-56
2023/09/17 03:58:42;;;;;;;3.90;3.60;;;23.20;99.90;;;;;;4998806;28;20494;-53
2023/09/17 04:01:10;;;;;;;4.37;4.07;;;23.20;99.90;;;;;;5000146;28;20456;-54
2023/09/17 04:03:37;;;;;;;4.13;3.83;;;23.20;99.90;;;;;;5000553;28;20595;-55
2023/09/17 04:06:04;;;;;;;4.03;3.73;;;23.20;99.90;;;;;;5000985;28;21060;-54
2023/09/17 04:08:31;;;;;;;3.97;3.73;;;23.20;99.90;;;;;;5002501;28;20855;-57
2023/09/17 04:10:58;;;;;;;3.87;3.60;;;23.20;99.90;;;;;;5002409;28;20459;-59
2023/09/17 04:13:27;;;;;;;3.97;3.67;;;23.20;99.90;;;;;;5001275;28;20471;-57
2023/09/17 04:15:54;;;;;;;3.73;3.43;;;23.20;99.90;;;;;;4998089;28;20973;-59
2023/09/17 04:18:22;;;;;;;4.20;3.90;;;23.20;99.90;;;;;;5002288;28;20475;-58
2023/09/17 04:20:49;;;;;;;4.20;3.90;;;23.20;99.90;;;;;;5001670;28;20461;-55
2023/09/17 04:23:16;;;;;;;3.63;3.33;;;23.20;99.90;;;;;;5001731;28;22066;-55
2023/09/17 04:25:42;;;;;;;3.90;3.60;;;23.20;99.90;;;;;;5003536;28;20481;-52
2023/09/17 04:28:09;;;;;;;3.83;3.53;;;23.20;99.90;;;;;;5003263;28;20471;-60
2023/09/17 04:30:38;;;;;;;4.63;4.27;;;23.20;99.90;;;;;;4996240;28;20467;-56
2023/09/17 04:33:05;;;;;;;4.63;4.33;;;23.20;99.90;;;;;;5000469;28;20463;-57
2023/09/17 04:35:33;;;;;;;3.87;3.60;;;23.20;99.90;;;;;;5002859;28;20593;-53
2023/09/17 04:38:00;;;;;;;3.73;3.43;;;23.20;99.90;;;;;;5001824;28;20846;-58
2023/09/17 04:40:28;;;;;;;3.80;3.50;;;23.20;99.90;;;;;;5000264;28;21003;-55
2023/09/17 04:42:55;;;;;;;4.03;3.73;;;23.20;99.90;;;;;;5001694;28;20458;-57
2023/09/17 04:45:33;;;;;;;4.43;4.03;;;23.20;99.90;;;;;;4996442;28;20464;-59
2023/09/17 04:48:00;;;;;;;4.03;3.73;;;23.20;99.90;;;;;;5003114;28;20445;-54
2023/09/17 04:50:29;;;;;;;4.37;3.97;;;23.20;99.90;;;;;;4999600;28;20466;-54
2023/09/17 04:52:58;;;;;;;4.30;3.90;;;23.20;99.90;;;;;;4999208;28;20496;-57
2023/09/17 04:55:24;;;;;;;3.67;3.37;;;23.20;99.90;;;;;;4996184;28;20494;-57
2023/09/17 04:57:52;;;;;;;3.80;3.50;;;23.20;99.90;;;;;;5002325;28;20556;-54
2023/09/17 05:00:24;;;;;;;3.70;3.33;;;23.20;99.90;;;;;;4998109;28;20466;-56
2023/09/17 05:02:51;;;;;;;4.37;4.07;;;23.20;99.90;;;;;;5003620;28;21029;-52
2023/09/17 05:05:19;;;;;;;3.80;3.50;;;23.20;99.90;;;;;;4998445;28;20464;-55
2023/09/17 05:07:47;;;;;;;4.60;3.80;;;23.20;99.90;;;;;;4995974;28;20467;-50
2023/09/17 05:10:15;;;;;;;4.00;3.70;;;23.20;99.90;;;;;;4999286;28;20457;-57
2023/09/17 05:12:43;;;;;;;4.37;3.97;;;23.20;99.90;;;;;;5002653;28;20497;-50
2023/09/17 05:15:11;;;;;;;5.10;4.70;;;23.20;99.90;;;;;;4998329;28;20487;-53
2023/09/17 05:17:38;;;;;;;3.93;3.60;;;23.20;99.90;;;;;;4999764;28;20478;-57
2023/09/17 05:20:06;;;;;;;5.10;3.70;;;23.20;99.90;;;;;;4998763;28;20547;-56
2023/09/17 05:22:34;;;;;;;4.00;3.70;;;23.20;99.90;;;;;;4998992;28;20460;-54
2023/09/17 05:25:01;;;;;;;3.80;3.50;;;23.20;99.90;;;;;;4996891;28;20466;-54
2023/09/17 05:27:29;;;;;;;3.60;3.40;;;23.20;99.90;;;;;;4997113;28;20480;-53
2023/09/17 05:29:55;;;;;;;4.00;3.70;;;23.20;99.90;;;;;;5000047;28;20461;-52
2023/09/17 05:32:22;;;;;;;3.50;3.20;;;23.20;99.90;;;;;;4998569;28;20488;-54
2023/09/17 05:34:49;;;;;;;4.87;3.73;;;23.20;99.90;;;;;;4998143;28;20469;-57
2023/09/17 05:37:16;;;;;;;5.23;3.80;;;23.20;99.90;;;;;;4996310;28;20464;-58
2023/09/17 05:39:42;;;;;;;4.10;3.80;;;23.20;99.90;;;;;;4996287;28;20461;-54
2023/09/17 05:42:09;;;;;;;3.80;3.30;;;23.20;99.90;;;;;;4998332;28;20477;-59
2023/09/17 05:44:37;;;;;;;4.53;4.23;;;23.20;99.90;;;;;;4998600;28;20470;-55
2023/09/17 05:47:04;;;;;;;4.10;3.80;;;23.20;99.90;;;;;;4999091;28;20460;-58
2023/09/17 05:49:31;;;;;;;3.77;3.47;;;23.20;99.90;;;;;;4999551;28;20467;-60
2023/09/17 05:51:59;;;;;;;3.70;3.43;;;23.20;99.90;;;;;;4995793;28;21049;-57
2023/09/17 05:54:26;;;;;;;4.73;4.33;;;23.20;99.90;;;;;;4997890;28;20464;-57
2023/09/17 05:56:52;;;;;;;4.30;4.00;;;23.20;99.90;;;;;;4998437;28;20470;-57
2023/09/17 05:59:19;;;;;;;3.87;3.57;;;23.20;99.90;;;;;;4997968;28;20480;-58
2023/09/17 06:01:47;;;;;;;4.13;3.83;;;23.20;99.90;;;;;;4998757;28;20961;-52
2023/09/17 06:04:14;;;;;;;3.60;3.30;;;23.20;99.90;;;;;;4994024;28;20466;-57
2023/09/17 06:06:41;;;;;;;3.73;3.43;;;23.20;99.90;;;;;;4996199;28;20470;-54
2023/09/17 06:09:08;;;;;;;4.10;3.80;;;23.20;99.90;;;;;;4997598;28;20495;-54
2023/09/17 06:11:35;;;;;;;3.37;3.10;;;23.20;99.90;;;;;;5000624;28;20545;-58
2023/09/17 06:14:02;;;;;;;3.63;3.30;;;23.20;99.90;;;;;;4997588;28;20547;-58
2023/09/17 06:16:29;;;;;;;4.57;4.17;;;23.20;99.90;;;;;;4998909;28;20498;-59
2023/09/17 06:18:57;;;;;;;4.07;3.77;;;23.20;99.90;;;;;;5000852;28;20490;-55
2023/09/17 06:21:24;;;;;;;4.10;3.80;;;23.20;99.90;;;;;;4998781;28;20467;-52
2023/09/17 06:23:51;;;;;;;4.27;3.97;;;23.20;99.90;;;;;;5000743;28;20455;-53
2023/09/17 06:26:17;;;;;;;4.10;3.80;;;23.20;99.90;;;;;;4999302;28;20828;-58
2023/09/17 06:28:44;;;;;;;4.60;4.20;;;23.20;99.90;;;;;;4999135;28;20527;-52
2023/09/17 06:31:11;;;;;;;3.77;3.47;;;23.20;99.90;;;;;;4997629;28;20932;-55
2023/09/17 06:33:38;;;;;;;4.10;3.73;;;23.20;99.90;;;;;;4999235;28;20468;-54
2023/09/17 06:36:06;;;;;;;3.73;3.43;;;23.20;99.90;;;;;;5001413;28;20467;-54
2023/09/17 06:38:33;;;;;;;4.10;3.83;;;23.20;99.90;;;;;;5001148;28;20835;-53
2023/09/17 06:41:00;;;;;;;4.13;3.63;;;23.20;99.90;;;;;;4997825;28;20464;-58
2023/09/17 06:43:29;;;;;;;3.40;3.10;;;23.20;99.90;;;;;;5000699;28;20497;-49
2023/09/17 06:45:56;;;;;;;3.70;3.40;;;23.20;99.90;;;;;;4998962;28;20465;-56
2023/09/17 06:48:24;;;;;;;3.93;3.57;;;23.20;99.90;;;;;;4999957;28;20527;-56
2023/09/17 06:50:50;;;;;;;3.90;3.60;;;23.20;99.90;;;;;;4998232;28;21585;-52
2023/09/17 06:53:18;;;;;;;4.30;4.00;;;23.20;99.90;;;;;;5001122;28;20469;-58
2023/09/17 06:55:45;;;;;;;3.50;3.20;;;23.20;99.90;;;;;;4998775;28;20456;-55
2023/09/17 06:58:16;;;;;;;3.67;3.37;;;23.20;99.90;;;;;;4999370;28;20483;-56
2023/09/17 07:00:43;;;;;;;4.37;4.07;;;23.20;99.90;;;;;;4997598;28;20459;-52
2023/09/17 07:03:09;;;;;;;4.00;3.70;;;23.20;99.90;;;;;;5000636;28;20499;-52
2023/09/17 07:05:36;;;;;;;3.63;3.33;;;23.20;99.90;;;;;;4999312;28;20470;-56
2023/09/17 07:08:03;;;;;;;4.77;3.90;;;23.20;99.90;;;;;;4999375;28;20474;-54
2023/09/17 07:10:32;;;;;;;3.63;3.33;;;23.20;99.90;;;;;;5000514;28;20459;-56
2023/09/17 07:12:58;;;;;;;4.07;3.77;;;23.20;99.90;;;;;;5000515;28;21354;-49
2023/09/17 07:15:26;;;;;;;4.27;3.87;;;23.20;99.90;;;;;;4996509;28;20467;-54
2023/09/17 07:17:54;;;;;;;4.67;3.97;;;23.20;99.90;;;;;;5000756;28;20494;-51
2023/09/17 07:20:21;;;;;;;3.90;3.60;;;23.20;99.90;;;;;;4997488;28;20693;-50
2023/09/17 07:22:48;;;;;;;3.63;3.33;;;23.20;99.90;;;;;;5001049;28;20543;-51
2023/09/17 07:25:15;;;;;;;7.10;4.00;;;23.20;99.90;;;;;;4999979;28;20875;-50
2023/09/17 07:27:44;;;;;;;3.53;3.20;;;23.20;99.90;;;;;;4998145;28;20467;-57
2023/09/17 07:30:11;;;;;;;3.87;3.60;;;23.20;99.90;;;;;;4999518;28;20817;-53
2023/09/17 07:32:38;;;;;;;4.00;3.70;;;23.20;99.90;;;;;;4998617;28;20470;-49
2023/09/17 07:35:05;;;;;;;3.27;3.00;;;23.20;99.90;;;;;;4995167;28;20973;-52
2023/09/17 07:37:32;;;;;;;4.07;3.77;;;23.20;99.90;;;;;;4996555;28;20459;-50
2023/09/17 07:40:01;;;;;;;3.87;3.57;;;23.20;99.90;;;;;;4996730;28;20483;-54
2023/09/17 07:42:28;;;;;;;4.10;3.80;;;23.20;99.90;;;;;;4999683;28;20478;-50
2023/09/17 07:44:56;;;;;;;3.37;3.17;;;23.20;99.90;;;;;;4999120;28;20466;-51
2023/09/17 07:47:22;;;;;;;4.00;3.70;;;23.20;99.90;;;;;;4996512;28;20949;-61
2023/09/17 07:49:49;;;;;;;3.60;3.40;;;23.20;99.90;;;;;;4998087;28;20459;-56
2023/09/17 07:52:16;;;;;;;4.03;3.73;;;23.20;99.90;;;;;;4997775;28;20828;-48
2023/09/17 07:54:44;;;;;;;3.37;3.07;;;23.20;99.90;;;;;;4998048;28;21009;-53
2023/09/17 07:57:12;;;;;;;3.90;3.60;;;23.20;99.90;;;;;;4996807;28;20471;-57
2023/09/17 07:59:39;;;;;;;4.87;4.40;;;23.20;99.90;;;;;;4998544;28;20484;-56
2023/09/17 08:02:07;;;;;;;4.30;4.00;;;23.20;99.90;;;;;;4993381;28;20494;-58
2023/09/17 08:04:34;;;;;;;3.47;3.17;;;23.20;99.90;;;;;;4997377;28;21120;-55
2023/09/17 08:07:02;;;;;;;3.90;3.60;;;23.20;99.90;;;;;;4997295;28;20467;-56
2023/09/17 08:09:29;;;;;;;4.00;3.70;;;23.20;99.90;;;;;;4994459;28;20468;-53
2023/09/17 08:11:56;;;;;;;4.03;3.73;;;23.20;99.90;;;;;;4994402;28;21262;-53
2023/09/17 08:14:23;;;;;;;3.30;2.70;;;23.20;99.90;;;;;;4996523;28;20988;-52
2023/09/17 08:16:50;;;;;;;3.40;3.10;;;23.20;99.90;;;;;;4991327;28;20813;-50
2023/09/17 08:19:18;;;;;;;3.40;3.10;;;23.20;99.90;;;;;;4994775;28;20846;-50
2023/09/17 08:21:45;;;;;;;3.73;3.50;;;23.20;99.90;;;;;;4997089;28;20459;-60
2023/09/17 08:24:12;;;;;;;4.23;3.93;;;23.20;99.90;;;;;;4998452;28;20518;-54
2023/09/17 08:26:39;;;;;;;7.20;3.40;;;23.20;99.90;;;;;;5000233;28;20456;-54
2023/09/17 08:29:06;;;;;;;4.10;3.70;;;23.20;99.90;;;;;;4997874;28;20470;-56
2023/09/17 08:31:34;;;;;;;3.80;3.50;;;23.30;99.90;;;;;;4995046;28;20487;-57
2023/09/17 08:34:04;;;;;;;3.57;3.27;;;23.20;99.90;;;;;;4996385;28;20479;-52
2023/09/17 08:36:32;;;;;;;8.83;4.80;;;23.30;99.90;;;;;;4993021;28;20871;-53
2023/09/17 08:38:59;;;;;;;3.97;3.67;;;23.20;99.90;;;;;;5000272;28;20477;-54
2023/09/17 08:41:26;;;;;;;5.10;4.40;;;23.30;99.90;;;;;;4997022;28;20823;-51
2023/09/17 08:43:54;;;;;;;3.73;3.43;;;23.30;99.90;;;;;;4995228;28;20687;-57
2023/09/17 08:46:22;;;;;;;4.77;4.47;;;23.30;99.90;;;;;;4999716;28;20953;-53
2023/09/17 08:48:49;;;;;;;4.50;4.10;;;23.30;99.90;;;;;;5001803;28;20497;-56
2023/09/17 08:51:19;;;;;;;4.87;4.37;;;23.30;99.90;;;;;;4995847;28;20467;-54
2023/09/17 08:53:54;;;;;;;5.73;3.93;;;23.30;99.90;;;;;;4994607;28;20468;-60
2023/09/17 08:56:22;;;;;;;4.40;4.10;;;23.30;99.90;;;;;;5000787;28;20963;-55
2023/09/17 08:58:59;;;;;;;4.97;4.57;;;23.30;99.90;;;;;;5002599;28;20480;-55
2023/09/17 09:01:26;;;;;;;4.80;4.40;;;23.30;99.90;;;;;;4995821;28;20444;-55
2023/09/17 09:03:54;;;;;;;4.13;3.83;;;23.40;99.90;;;;;;5001999;28;21072;-51
2023/09/17 09:06:21;;;;;;;4.57;4.27;;;23.40;99.90;;;;;;5001107;28;20552;-52
2023/09/17 09:08:50;;;;;;;4.70;4.30;;;23.40;99.90;;;;;;5001994;28;20467;-58
2023/09/17 09:11:18;;;;;;;5.23;4.60;;;23.40;99.90;;;;;;4997538;28;20871;-57
2023/09/17 09:13:47;;;;;;;9.37;4.30;;;23.40;99.90;;;;;;5003190;28;20920;-59
2023/09/17 09:16:13;;;;;;;5.90;4.40;;;23.40;99.90;;;;;;4999687;28;20460;-55
2023/09/17 09:18:40;;;;;;;4.27;3.77;;;23.40;99.90;;;;;;5001283;28;21228;-50
2023/09/17 09:21:10;;;;;;;5.20;4.80;;;23.40;99.90;;;;;;4998435;28;20825;-54
2023/09/17 09:23:37;;;;;;;4.63;4.23;;;23.40;99.90;;;;;;4998406;28;20843;-55
2023/09/17 09:26:07;;;;;;;4.40;4.10;;;23.40;99.90;;;;;;4997300;28;20466;-64
2023/09/17 09:28:34;;;;;;;4.43;4.03;;;23.40;99.90;;;;;;5000683;28;20492;-52
2023/09/17 09:31:02;;;;;;;4.20;3.83;;;23.40;99.90;;;;;;4996328;28;20469;-51
2023/09/17 09:33:29;;;;;;;5.10;4.70;;;23.40;99.90;;;;;;4999305;28;20461;-56
2023/09/17 09:35:56;;;;;;;3.80;3.50;;;23.40;99.90;;;;;;5000352;28;20469;-61
2023/09/17 09:38:23;;;;;;;4.07;3.77;;;23.40;99.90;;;;;;4997530;28;20469;-50
2023/09/17 09:40:49;;;;;;;4.27;3.97;;;23.40;99.90;;;;;;4997199;28;20465;-58
2023/09/17 09:43:31;;;;;;;4.37;4.07;;;23.40;99.90;;;;;;4991768;28;20961;-57
2023/09/17 09:46:01;;;;;;;6.80;4.50;;;23.40;99.90;;;;;;4999246;28;20726;-54
2023/09/17 09:48:29;;;;;;;4.50;4.20;;;23.40;99.90;;;;;;4995222;28;20515;-60
2023/09/17 09:50:56;;;;;;;4.13;3.83;;;23.40;99.90;;;;;;4998270;28;20527;-52
2023/09/17 09:53:23;;;;;;;3.90;3.60;;;23.40;99.90;;;;;;4993151;28;20468;-55
2023/09/17 09:55:50;;;;;;;4.60;4.20;;;23.40;99.90;;;;;;4995547;28;20884;-56
2023/09/17 09:58:17;;;;;;;5.23;4.80;;;23.40;99.90;;;;;;4998003;28;20469;-56
2023/09/17 10:00:45;;;;;;;4.40;4.00;;;23.50;99.90;;;;;;4997604;28;20481;-63
2023/09/17 10:03:13;;;;;;;4.63;4.23;;;23.50;99.90;;;;;;5001085;28;20457;-61
2023/09/17 10:05:40;;;;;;;4.40;4.10;;;23.40;99.90;;;;;;4996342;28;20480;-54
2023/09/17 10:08:08;;;;;;;4.57;4.17;;;23.50;99.90;;;;;;5000263;28;20830;-62
2023/09/17 10:10:37;;;;;;;4.90;4.30;;;23.50;99.90;;;;;;4998202;28;20463;-58
2023/09/17 10:13:06;;;;;;;4.50;4.13;;;23.50;99.90;;;;;;5001752;28;20462;-58
2023/09/17 10:15:33;;;;;;;4.93;4.53;;;23.50;99.90;;;;;;4995855;28;20469;-54
2023/09/17 10:18:04;;;;;;;4.93;4.53;;;23.50;99.90;;;;;;4999619;28;20451;-55
2023/09/17 10:20:31;;;;;;;5.17;4.77;;;23.50;99.90;;;;;;4998279;28;20580;-57
2023/09/17 10:22:59;;;;;;;6.13;3.93;;;23.50;99.90;;;;;;4999906;28;20469;-59
2023/09/17 10:25:27;;;;;;;4.70;4.20;;;23.50;99.90;;;;;;4994207;28;20506;-57
2023/09/17 10:27:54;;;;;;;3.90;3.60;;;23.50;99.90;;;;;;4981696;28;20462;-60
2023/09/17 10:30:22;;;;;;;4.13;3.83;;;23.50;99.90;;;;;;4979155;28;21815;-55
2023/09/17 10:32:50;;;;;;;4.60;4.30;;;23.60;99.90;;;;;;4997452;28;20464;-63
2023/09/17 10:35:18;;;;;;;4.40;3.97;;;23.60;99.90;;;;;;4989520;28;20465;-61
2023/09/17 10:37:48;;;;;;;3.80;3.50;;;23.60;99.90;;;;;;4994822;28;20467;-60
2023/09/17 10:40:15;;;;;;;3.90;3.60;;;23.60;99.90;;;;;;4995025;28;20603;-62
2023/09/17 10:42:43;;;;;;;4.00;3.50;;;23.60;99.90;;;;;;4994181;28;20490;-55
2023/09/17 10:45:11;;;;;;;4.60;4.20;;;23.60;99.90;;;;;;4993142;28;20466;-58
2023/09/17 10:47:40;;;;;;;3.93;3.63;;;23.70;99.90;;;;;;4987677;28;20463;-59
2023/09/17 10:50:08;;;;;;;4.07;3.13;;;23.70;99.90;;;;;;4992029;28;20466;-60
2023/09/17 10:52:37;;;;;;;4.00;3.70;;;23.70;99.90;;;;;;4999369;28;20531;-63
2023/09/17 10:55:07;;;;;;;3.90;3.53;;;23.70;99.90;;;;;;4995975;28;20552;-62
2023/09/17 10:57:39;;;;;;;3.90;3.60;;;23.80;99.90;;;;;;4996955;28;20462;-55
2023/09/17 11:00:11;;;;;;;4.00;3.70;;;23.80;99.90;;;;;;4996994;28;20482;-56
2023/09/17 11:02:40;;;;;;;4.93;3.37;;;23.80;99.90;;;;;;5000432;28;20476;-55
2023/09/17 11:05:08;;;;;;;3.77;3.47;;;23.80;99.90;;;;;;4996032;28;20466;-64
2023/09/17 11:07:37;;;;;;;3.30;3.00;;;23.80;99.90;;;;;;4999398;28;20470;-59
2023/09/17 11:10:05;;;;;;;4.67;2.70;;;23.80;99.90;;;;;;4998795;28;20468;-59
2023/09/17 11:12:32;;;;;;;4.63;4.00;;;23.90;99.90;;;;;;4996395;28;20480;-53
2023/09/17 11:14:59;;;;;;;5.10;3.40;;;23.90;99.90;;;;;;4989057;28;21051;-61
2023/09/17 11:17:31;;;;;;;4.87;4.07;;;23.90;99.90;;;;;;4997170;28;20463;-55
2023/09/17 11:19:58;;;;;;;3.40;3.10;;;24.00;99.90;;;;;;4993763;28;21007;-62
2023/09/17 11:22:27;;;;;;;3.17;2.97;;;24.00;99.90;;;;;;4997913;28;20455;-58
2023/09/17 11:24:55;;;;;;;4.10;3.70;;;24.00;99.90;;;;;;4999173;28;20495;-56
2023/09/17 11:27:43;;;;;;;4.40;3.50;;;24.00;99.90;;;;;;4999548;28;21029;-60
2023/09/17 11:30:15;;;;;;;3.40;3.10;;;24.00;99.90;;;;;;4994804;28;21159;-62
2023/09/17 11:32:52;;;;;;;4.03;3.67;;;24.00;99.90;;;;;;4999313;28;20459;-60
2023/09/17 11:35:21;;;;;;;2.80;2.60;;;24.10;99.90;;;;;;4995764;28;20463;-58
2023/09/17 11:37:48;;;;;;;3.50;3.20;;;24.10;99.90;;;;;;4995308;28;21404;-65
2023/09/17 11:40:18;;;;;;;4.30;3.60;;;24.10;99.90;;;;;;4992911;28;20483;-58
2023/09/17 11:42:45;;;;;;;6.40;3.33;;;24.20;99.90;;;;;;4997377;28;21146;-66
2023/09/17 11:45:12;;;;;;;3.43;3.20;;;24.10;99.90;;;;;;4998302;28;20734;-59
2023/09/17 11:47:40;;;;;;;3.87;2.73;;;24.20;99.90;;;;;;4996018;28;20455;-64
2023/09/17 11:50:08;;;;;;;3.17;2.87;;;24.20;99.90;;;;;;4995507;28;20471;-64
2023/09/17 11:52:35;;;;;;;3.07;2.77;;;24.30;99.90;;;;;;4996079;28;20862;-59
2023/09/17 11:55:03;;;;;;;3.30;3.00;;;24.30;99.90;;;;;;4999012;28;20459;-58
2023/09/17 11:57:31;;;;;;;3.57;3.20;;;24.30;99.90;;;;;;4990972;28;20679;-61
2023/09/17 11:59:58;;;;;;;4.37;3.43;;;24.30;99.90;;;;;;4983094;28;20486;-59
2023/09/17 12:02:25;;;;;;;3.13;2.93;;;24.30;99.90;;;;;;4992651;28;20978;-53
2023/09/17 12:04:52;;;;;;;3.83;3.53;;;24.40;99.90;;;;;;4997073;28;20459;-60
2023/09/17 12:07:20;;;;;;;3.33;3.10;;;24.40;99.90;;;;;;4995967;28;21019;-55
2023/09/17 12:09:58;;;;;;;3.73;3.43;;;24.40;99.90;;;;;;5000885;28;20494;-54
2023/09/17 12:12:25;;;;;;;4.20;3.17;;;24.50;99.90;;;;;;4999505;28;20462;-55
2023/09/17 12:14:53;;;;;;;2.60;2.40;;;24.50;99.90;;;;;;4993136;28;20455;-59
2023/09/17 12:17:21;;;;;;;3.57;3.00;;;24.50;99.90;;;;;;4993277;28;20538;-62
2023/09/17 12:19:49;;;;;;;3.70;3.40;;;24.50;99.90;;;;;;4996432;28;20482;-58
2023/09/17 12:22:15;;;;;;;3.40;3.20;;;24.50;99.90;;;;;;5001853;28;20876;-55
2023/09/17 12:24:44;;;;;;;3.27;3.00;;;24.50;99.90;;;;;;4998096;28;20463;-53
2023/09/17 12:27:24;;;;;;;3.50;2.83;;;24.50;99.90;;;;;;4997764;28;20486;-57
2023/09/17 12:29:54;;;;;;;3.10;2.83;;;24.50;99.90;;;;;;4997083;28;20463;-54
2023/09/17 12:32:25;;;;;;;3.03;2.80;;;24.60;99.90;;;;;;4998204;28;20493;-57
2023/09/17 12:34:54;;;;;;;3.90;2.93;;;24.60;99.90;;;;;;4999140;28;20517;-52
2023/09/17 12:37:22;;;;;;;3.30;3.00;;;24.60;99.90;;;;;;4998051;28;20467;-62
2023/09/17 12:39:50;;;;;;;3.47;3.17;;;24.60;99.90;;;;;;5000685;28;20478;-56
2023/09/17 12:42:17;;;;;;;3.43;3.13;;;24.60;99.90;;;;;;5001751;28;20493;-55
2023/09/17 12:44:44;;;;;;;4.10;3.10;;;24.70;99.90;;;;;;4999856;28;20821;-49
2023/09/17 12:47:13;;;;;;;4.00;3.23;;;24.80;99.90;;;;;;4999668;28;20629;-52
2023/09/17 12:49:40;;;;;;;3.87;3.20;;;24.80;99.90;;;;;;4995314;28;20993;-59
2023/09/17 12:52:07;;;;;;;3.73;3.37;;;24.80;99.90;;;;;;4993374;28;20485;-58